Terminal Aerodrome Forecast
Issued by NWS

Home | Current Version | Previous Version | Text Only | Print | Product List | Glossary On
Versions: 1 2 3 4 5 6 7 8 9 10 11 12 13 14 15 16 17
000
FTUS46 KMFR 182351
TAFOTH
TAF
KOTH 182351Z 1900/1924 19011KT P6SM -RA SCT040 OVC060
     FM190200 19014G25KT 5SM +RA BR SCT007 BKN015 OVC030
     FM190600 22011KT P6SM -RA SCT015 OVC040
     FM190900 20010KT 5SM -SHRA BR OVC015
     FM191800 19010KT P6SM -SHRA SCT030 OVC050=

USA.gov is the U.S. government's official web portal to all federal, state and local government web resources and services.